createdAt,value
2022-10-28T00:01:28.857Z,79.22
2022-10-28T00:03:59.313Z,78.90
2022-10-28T00:06:33.277Z,78.62
2022-10-28T00:09:04.592Z,78.46
2022-10-28T00:11:36.355Z,78.48
2022-10-28T00:14:07.362Z,78.80
2022-10-28T00:16:37.890Z,78.55
2022-10-28T00:19:07.685Z,78.38
2022-10-28T00:21:37.394Z,78.87
2022-10-28T00:24:06.946Z,79.66
2022-10-28T00:26:36.852Z,80.06
2022-10-28T00:29:14.442Z,80.12
2022-10-28T00:31:43.136Z,79.99
2022-10-28T00:34:17.527Z,79.23
2022-10-28T00:36:47.560Z,78.76
2022-10-28T00:39:19.313Z,78.65
2022-10-28T00:41:50.404Z,78.85
2022-10-28T00:44:41.294Z,78.98
2022-10-28T00:47:38.581Z,79.05
2022-10-28T00:50:26.758Z,79.01
2022-10-28T00:53:02.110Z,79.15
2022-10-28T00:55:31.985Z,79.28
2022-10-28T00:58:02.848Z,79.51
2022-10-28T01:00:31.945Z,79.67
2022-10-28T01:03:00.536Z,79.86
2022-10-28T01:05:31.656Z,79.48
2022-10-28T01:08:02.090Z,79.38
2022-10-28T01:10:44.136Z,79.34
2022-10-28T01:13:52.723Z,79.42
2022-10-28T01:17:13.538Z,79.76
2022-10-28T01:20:00.243Z,79.28
2022-10-28T01:22:41.514Z,79.41
2022-10-28T01:25:54.338Z,79.42
2022-10-28T01:28:28.211Z,79.74
2022-10-28T01:31:27.203Z,79.36
2022-10-28T01:34:39.962Z,79.41
2022-10-28T01:37:34.065Z,79.59
2022-10-28T01:40:27.111Z,79.79
2022-10-28T01:43:25.282Z,79.53
2022-10-28T01:46:08.506Z,79.10
2022-10-28T01:48:53.271Z,78.89
2022-10-28T01:51:35.881Z,78.94
2022-10-28T01:54:07.746Z,78.96
2022-10-28T01:56:41.036Z,79.05
2022-10-28T01:59:18.010Z,78.88
2022-10-28T02:01:46.275Z,78.83
2022-10-28T02:04:15.591Z,78.98
2022-10-28T02:06:48.217Z,78.69
2022-10-28T02:09:47.171Z,77.88
2022-10-28T02:12:26.711Z,78.19
2022-10-28T02:15:16.906Z,79.20
2022-10-28T02:17:57.551Z,79.78
2022-10-28T02:20:31.878Z,79.99
2022-10-28T02:23:33.960Z,80.22
2022-10-28T02:26:22.813Z,80.56
2022-10-28T02:29:20.185Z,80.79
2022-10-28T02:31:53.877Z,80.63
2022-10-28T02:34:27.688Z,80.31
2022-10-28T02:36:59.847Z,80.58
2022-10-28T02:39:36.748Z,80.53
2022-10-28T02:42:24.314Z,80.63
2022-10-28T02:45:01.067Z,80.50
2022-10-28T02:47:34.010Z,80.42
2022-10-28T02:50:07.818Z,80.41
2022-10-28T02:52:36.764Z,80.05
2022-10-28T02:55:06.678Z,79.23
2022-10-28T02:57:39.504Z,78.87
2022-10-28T03:00:11.482Z,78.88
2022-10-28T03:02:39.596Z,78.58
2022-10-28T03:05:08.265Z,78.15
2022-10-28T03:07:36.301Z,78.30
2022-10-28T03:10:04.893Z,78.12
2022-10-28T03:12:33.715Z,77.88
2022-10-28T03:15:03.284Z,78.54
2022-10-28T03:17:31.777Z,78.92
2022-10-28T03:20:00.045Z,78.24
2022-10-28T03:22:28.209Z,77.98
2022-10-28T03:24:56.278Z,77.55
2022-10-28T03:27:25.698Z,78.54
2022-10-28T03:29:53.922Z,79.37
2022-10-28T03:34:55.141Z,79.65
2022-10-28T03:37:23.258Z,79.68
2022-10-28T03:39:51.373Z,79.39
2022-10-28T03:42:20.271Z,79.16
2022-10-28T03:44:48.227Z,79.46
2022-10-28T03:47:19.065Z,79.79
2022-10-28T03:49:47.248Z,79.99
2022-10-28T03:52:15.242Z,80.22
2022-10-28T03:54:43.390Z,80.63
2022-10-28T03:57:14.342Z,80.47
2022-10-28T03:59:42.401Z,80.39
2022-10-28T04:02:11.213Z,80.06
2022-10-28T04:04:39.673Z,79.75
2022-10-28T04:07:07.743Z,79.53
2022-10-28T04:09:35.909Z,79.43
2022-10-28T04:12:08.204Z,79.74
2022-10-28T04:14:36.259Z,80.52
2022-10-28T04:17:04.424Z,80.89
2022-10-28T04:19:35.060Z,80.65
2022-10-28T04:22:03.163Z,80.52
2022-10-28T04:24:31.411Z,79.80
2022-10-28T04:26:59.691Z,79.72
2022-10-28T04:29:27.830Z,80.08
2022-10-28T04:31:56.003Z,80.35
2022-10-28T04:34:24.167Z,80.43
2022-10-28T04:36:52.664Z,79.53
2022-10-28T04:39:21.464Z,79.10
2022-10-28T04:41:49.818Z,79.23
2022-10-28T04:44:18.598Z,79.78
2022-10-28T04:46:46.890Z,79.97
2022-10-28T04:49:15.062Z,79.82
2022-10-28T04:51:43.283Z,79.52
2022-10-28T04:54:12.372Z,79.64
2022-10-28T04:56:40.398Z,79.96
2022-10-28T04:59:08.429Z,80.19
2022-10-28T05:01:37.391Z,80.20
2022-10-28T05:04:06.272Z,80.27
2022-10-28T05:06:34.322Z,80.51
2022-10-28T05:09:06.802Z,80.68
2022-10-28T05:11:34.949Z,80.39
2022-10-28T05:14:03.874Z,79.77
2022-10-28T05:16:32.126Z,79.38
2022-10-28T05:19:00.331Z,79.95
2022-10-28T05:21:28.705Z,79.69
2022-10-28T05:23:57.400Z,79.57
2022-10-28T05:26:25.558Z,79.05
2022-10-28T05:28:53.703Z,79.20
2022-10-28T05:31:22.105Z,79.61
2022-10-28T05:33:57.651Z,79.44
2022-10-28T05:36:31.648Z,79.54
2022-10-28T05:39:02.505Z,79.56
2022-10-28T05:41:34.039Z,79.65
2022-10-28T05:44:04.584Z,79.41
2022-10-28T05:46:32.861Z,79.29
2022-10-28T05:49:01.026Z,79.35
2022-10-28T05:51:29.106Z,79.20
2022-10-28T05:53:58.739Z,79.60
2022-10-28T05:56:27.408Z,80.01
2022-10-28T05:58:58.156Z,80.00
2022-10-28T06:01:26.606Z,79.74
2022-10-28T06:03:55.074Z,79.82
2022-10-28T06:06:23.378Z,79.63
2022-10-28T06:08:51.543Z,79.56
2022-10-28T06:11:18.503Z,79.50
2022-10-28T06:13:47.384Z,79.60
2022-10-28T06:16:16.176Z,79.76
2022-10-28T06:18:44.545Z,79.63
2022-10-28T06:21:13.342Z,79.54
2022-10-28T06:23:41.391Z,79.61
2022-10-28T06:26:09.696Z,79.35
2022-10-28T06:28:37.974Z,79.33
2022-10-28T06:31:07.968Z,79.54
2022-10-28T06:33:36.159Z,79.67
2022-10-28T06:36:05.350Z,80.00
2022-10-28T06:38:33.536Z,80.33
2022-10-28T06:41:45.154Z,80.81
2022-10-28T06:44:13.420Z,82.33
2022-10-28T06:46:43.100Z,82.76
2022-10-28T06:49:11.305Z,83.27
2022-10-28T06:51:39.460Z,83.65
2022-10-28T06:54:07.626Z,83.80
2022-10-28T06:56:35.914Z,84.08
2022-10-28T06:59:04.095Z,84.33
2022-10-28T07:01:32.389Z,84.39
2022-10-28T07:04:01.701Z,84.54
2022-10-28T07:06:29.843Z,84.50
2022-10-28T07:08:58.022Z,84.70
2022-10-28T07:11:26.342Z,84.78
2022-10-28T07:13:54.482Z,84.71
2022-10-28T07:16:22.660Z,84.73
2022-10-28T07:18:50.917Z,84.58
2022-10-28T07:21:21.971Z,84.93
2022-10-28T07:23:50.332Z,85.10
2022-10-28T07:26:18.425Z,84.93
2022-10-28T07:28:46.708Z,85.00
2022-10-28T07:31:14.880Z,84.95
2022-10-28T07:33:43.256Z,84.89
2022-10-28T07:36:12.239Z,84.91
2022-10-28T07:38:40.743Z,84.97
2022-10-28T07:41:10.734Z,84.77
2022-10-28T07:43:39.619Z,84.60
2022-10-28T07:46:08.008Z,84.66
2022-10-28T07:48:37.613Z,84.95
2022-10-28T07:51:08.303Z,85.24
2022-10-28T07:53:37.428Z,85.39
2022-10-28T07:56:13.914Z,85.69
2022-10-28T07:58:44.082Z,85.50
2022-10-28T08:01:15.367Z,85.55
2022-10-28T08:03:44.144Z,85.51
2022-10-28T08:06:18.817Z,85.27
2022-10-28T08:08:49.101Z,84.97
2022-10-28T08:11:19.402Z,84.83
2022-10-28T08:13:47.593Z,84.93
2022-10-28T08:16:16.861Z,84.85
2022-10-28T08:18:46.118Z,84.43
2022-10-28T08:21:15.538Z,84.18
2022-10-28T08:23:47.093Z,83.71
2022-10-28T08:26:17.035Z,82.91
2022-10-28T08:28:45.090Z,82.87
2022-10-28T08:31:13.892Z,82.71
2022-10-28T08:33:47.015Z,82.55
2022-10-28T08:36:16.898Z,82.42
2022-10-28T08:38:46.816Z,82.32
2022-10-28T08:41:24.178Z,81.98
2022-10-28T08:43:58.169Z,81.77
2022-10-28T08:47:04.398Z,81.42
2022-10-28T08:49:39.530Z,81.09
2022-10-28T08:52:27.763Z,80.30
2022-10-28T08:55:04.857Z,79.33
2022-10-28T08:57:57.805Z,78.45
2022-10-28T09:00:29.739Z,77.28
2022-10-28T09:03:13.623Z,76.77
2022-10-28T09:05:48.362Z,76.39
2022-10-28T09:08:26.361Z,76.12
2022-10-28T09:11:13.769Z,75.88
2022-10-28T09:14:01.890Z,75.03
2022-10-28T09:16:48.355Z,74.56
2022-10-28T09:19:22.576Z,73.90
2022-10-28T09:22:04.858Z,73.53
2022-10-28T09:24:49.657Z,72.73
2022-10-28T09:27:52.679Z,72.42
2022-10-28T09:30:49.735Z,71.55
2022-10-28T09:33:55.295Z,71.07
2022-10-28T09:36:46.507Z,70.63
2022-10-28T09:39:23.898Z,70.51
2022-10-28T09:41:59.750Z,70.03
2022-10-28T09:44:43.688Z,70.02
2022-10-28T09:47:29.314Z,69.78
2022-10-28T09:50:01.752Z,69.14
2022-10-28T09:53:01.257Z,69.17
2022-10-28T09:55:29.728Z,68.51
2022-10-28T09:57:58.013Z,68.15
2022-10-28T10:00:26.734Z,67.91
2022-10-28T10:03:00.172Z,67.29
2022-10-28T10:05:31.398Z,66.85
2022-10-28T10:08:05.141Z,65.91
2022-10-28T10:10:45.804Z,64.87
2022-10-28T10:13:17.878Z,64.16
2022-10-28T10:15:51.906Z,63.79
2022-10-28T10:18:27.340Z,63.55
2022-10-28T10:21:00.823Z,63.30
2022-10-28T10:23:31.048Z,63.20
2022-10-28T10:26:09.719Z,63.03
2022-10-28T10:28:48.051Z,62.65
2022-10-28T10:31:24.249Z,61.91
2022-10-28T10:33:55.809Z,61.31
2022-10-28T10:36:28.858Z,61.02
2022-10-28T10:38:59.559Z,60.94
2022-10-28T10:41:44.537Z,60.97
2022-10-28T10:44:21.749Z,59.89
2022-10-28T10:46:53.330Z,59.24
2022-10-28T10:49:21.509Z,58.98
2022-10-28T10:51:57.269Z,58.65
2022-10-28T10:54:27.594Z,58.65
2022-10-28T10:57:26.938Z,58.00
2022-10-28T10:59:57.213Z,57.52
2022-10-28T11:02:32.655Z,57.29
2022-10-28T11:05:07.946Z,56.78
2022-10-28T11:07:40.787Z,57.02
2022-10-28T11:10:29.519Z,56.85
2022-10-28T11:13:04.369Z,55.80
2022-10-28T11:15:33.367Z,56.16
2022-10-28T11:18:04.790Z,55.49
2022-10-28T11:20:47.334Z,55.26
2022-10-28T11:23:35.543Z,55.01
2022-10-28T11:26:08.863Z,54.79
2022-10-28T11:29:01.922Z,54.32
2022-10-28T11:31:46.315Z,54.34
2022-10-28T11:34:26.650Z,53.92
2022-10-28T11:37:19.799Z,53.74
2022-10-28T11:40:13.691Z,53.87
2022-10-28T11:43:03.659Z,53.58
2022-10-28T11:45:44.743Z,53.78
2022-10-28T11:48:27.445Z,53.50
2022-10-28T11:51:18.773Z,52.72
2022-10-28T11:54:05.590Z,52.28
2022-10-28T11:56:39.481Z,52.36
2022-10-28T11:59:46.676Z,52.33
2022-10-28T12:02:33.754Z,51.82
2022-10-28T12:05:05.884Z,51.71
2022-10-28T12:08:04.542Z,51.53
2022-10-28T12:10:58.516Z,51.57
2022-10-28T12:14:06.266Z,51.66
2022-10-28T12:16:50.397Z,50.93
2022-10-28T12:19:28.269Z,50.68
2022-10-28T12:22:29.118Z,50.67
2022-10-28T12:25:02.702Z,50.42
2022-10-28T12:27:36.529Z,50.42
2022-10-28T12:30:21.494Z,50.54
2022-10-28T12:33:04.309Z,49.79
2022-10-28T12:35:37.612Z,49.54
2022-10-28T12:38:20.287Z,48.70
2022-10-28T12:40:57.273Z,48.87
2022-10-28T12:43:39.705Z,49.14
2022-10-28T12:46:18.830Z,49.11
2022-10-28T12:48:58.865Z,49.84
2022-10-28T12:51:41.602Z,49.81
2022-10-28T12:54:23.195Z,50.20
2022-10-28T12:57:02.121Z,50.18
2022-10-28T12:59:39.092Z,50.13
2022-10-28T13:02:17.578Z,49.74
2022-10-28T13:04:45.890Z,49.73
2022-10-28T13:07:23.195Z,49.71
2022-10-28T13:10:30.769Z,49.31
2022-10-28T13:13:20.459Z,48.84
2022-10-28T13:16:19.866Z,48.50
2022-10-28T13:19:16.813Z,48.74
2022-10-28T13:22:08.025Z,48.17
2022-10-28T13:24:51.065Z,48.12
2022-10-28T13:27:20.435Z,48.06
2022-10-28T13:29:55.206Z,48.12
2022-10-28T13:32:37.513Z,48.23
2022-10-28T13:35:28.277Z,48.24
2022-10-28T13:37:57.871Z,48.01
2022-10-28T13:40:32.213Z,47.87
2022-10-28T13:43:02.017Z,48.06
2022-10-28T13:45:52.253Z,47.98
2022-10-28T13:48:29.604Z,48.16
2022-10-28T13:51:10.072Z,48.09
2022-10-28T13:53:47.965Z,48.06
2022-10-28T13:56:25.762Z,48.44
2022-10-28T13:58:58.244Z,48.31
2022-10-28T14:01:37.761Z,48.68
2022-10-28T14:04:19.895Z,49.14
2022-10-28T14:06:48.574Z,49.64
2022-10-28T14:09:28.005Z,49.86
2022-10-28T14:12:18.745Z,49.65
2022-10-28T14:15:07.159Z,49.48
2022-10-28T14:17:45.369Z,49.90
2022-10-28T14:20:22.559Z,50.10
2022-10-28T14:22:54.607Z,50.49
2022-10-28T14:25:41.850Z,50.71
2022-10-28T14:28:32.357Z,50.84
2022-10-28T14:31:10.366Z,51.03
2022-10-28T14:33:42.287Z,51.13
2022-10-28T14:36:20.119Z,51.53
2022-10-28T14:39:03.747Z,51.95
2022-10-28T14:42:09.515Z,51.96
2022-10-28T14:45:05.531Z,52.00
2022-10-28T14:48:01.752Z,52.67
2022-10-28T14:50:51.743Z,52.88
2022-10-28T14:53:30.469Z,52.68
2022-10-28T14:56:06.364Z,52.88
2022-10-28T14:58:39.283Z,53.12
2022-10-28T15:01:16.681Z,53.55
2022-10-28T15:03:51.212Z,53.57
2022-10-28T15:06:39.525Z,53.63
2022-10-28T15:09:19.210Z,53.85
2022-10-28T15:11:56.082Z,54.05
2022-10-28T15:14:27.947Z,54.18
2022-10-28T15:16:56.516Z,54.33
2022-10-28T15:19:29.423Z,54.56
2022-10-28T15:22:20.696Z,54.44
2022-10-28T15:24:57.058Z,54.26
2022-10-28T15:27:28.933Z,54.09
2022-10-28T15:29:58.682Z,54.27
2022-10-28T15:32:26.985Z,54.51
2022-10-28T15:34:55.543Z,54.55
2022-10-28T15:37:30.350Z,54.80
2022-10-28T15:40:19.935Z,55.17
2022-10-28T15:42:59.440Z,55.26
2022-10-28T15:45:38.318Z,55.67
2022-10-28T15:48:20.196Z,55.64
2022-10-28T15:51:12.175Z,55.39
2022-10-28T15:53:45.729Z,55.23
2022-10-28T15:56:14.717Z,55.56
2022-10-28T15:58:49.336Z,55.86
2022-10-28T16:01:40.990Z,55.83
2022-10-28T16:04:19.792Z,55.93
2022-10-28T16:06:49.905Z,55.74
2022-10-28T16:09:35.187Z,55.75
2022-10-28T16:12:15.317Z,55.93
2022-10-28T16:14:54.481Z,56.00
2022-10-28T16:17:33.697Z,56.16
2022-10-28T16:20:17.062Z,56.45
2022-10-28T16:22:49.178Z,56.45
2022-10-28T16:25:20.906Z,56.54
2022-10-28T16:27:50.600Z,56.70
2022-10-28T16:30:20.010Z,56.70
2022-10-28T16:32:51.460Z,56.83
2022-10-28T16:35:24.587Z,56.92
2022-10-28T16:37:55.541Z,57.07
2022-10-28T16:40:50.565Z,57.18
2022-10-28T16:43:19.844Z,57.28
2022-10-28T16:45:49.944Z,57.29
2022-10-28T16:48:20.028Z,57.31
2022-10-28T16:50:51.591Z,57.64
2022-10-28T16:53:20.372Z,57.76
2022-10-28T16:55:49.158Z,57.96
2022-10-28T16:58:21.887Z,57.97
2022-10-28T17:00:53.974Z,58.19
2022-10-28T17:03:26.437Z,58.23
2022-10-28T17:05:59.969Z,58.43
2022-10-28T17:08:49.392Z,58.49
2022-10-28T17:11:19.518Z,58.54
2022-10-28T17:13:48.991Z,58.57
2022-10-28T17:16:17.460Z,58.57
2022-10-28T17:18:47.682Z,58.51
2022-10-28T17:21:16.566Z,58.70
2022-10-28T17:23:46.389Z,58.71
2022-10-28T17:26:15.441Z,58.85
2022-10-28T17:28:44.696Z,59.03
2022-10-28T17:31:19.179Z,59.17
2022-10-28T17:33:55.966Z,59.35
2022-10-28T17:36:26.507Z,59.40
2022-10-28T17:38:56.768Z,59.52
2022-10-28T17:41:29.467Z,59.44
2022-10-28T17:44:00.696Z,59.64
2022-10-28T17:46:30.753Z,59.76
2022-10-28T17:49:08.640Z,59.91
2022-10-28T17:51:39.598Z,60.03
2022-10-28T17:54:10.015Z,60.00
2022-10-28T17:56:40.690Z,60.02
2022-10-28T17:59:10.979Z,60.25
2022-10-28T18:01:41.583Z,60.18
2022-10-28T18:04:12.671Z,60.33
2022-10-28T18:06:41.672Z,60.55
2022-10-28T18:09:12.995Z,60.57
2022-10-28T18:11:43.147Z,60.70
2022-10-28T18:14:12.629Z,60.95
2022-10-28T18:16:42.062Z,61.10
2022-10-28T18:19:14.212Z,61.34
2022-10-28T18:21:45.266Z,61.34
2022-10-28T18:24:14.050Z,61.40
2022-10-28T18:26:43.738Z,61.61
2022-10-28T18:29:14.287Z,61.64
2022-10-28T18:31:44.585Z,61.77
2022-10-28T18:34:13.140Z,62.02
2022-10-28T18:36:42.841Z,62.14
2022-10-28T18:39:12.809Z,62.33
2022-10-28T18:41:43.462Z,62.42
2022-10-28T18:44:14.698Z,62.59
2022-10-28T18:46:48.519Z,62.75
2022-10-28T18:49:18.069Z,62.85
2022-10-28T18:51:46.897Z,62.92
2022-10-28T18:54:15.786Z,63.09
2022-10-28T18:56:47.827Z,63.12
2022-10-28T18:59:17.761Z,63.13
2022-10-28T19:01:47.363Z,63.28
2022-10-28T19:04:16.511Z,63.18
2022-10-28T19:06:47.484Z,63.05
2022-10-28T19:09:16.646Z,63.08
2022-10-28T19:11:45.392Z,63.07
2022-10-28T19:14:14.084Z,63.06
2022-10-28T19:16:43.707Z,63.11
2022-10-28T19:19:12.366Z,63.35
2022-10-28T19:21:40.850Z,63.37
2022-10-28T19:24:09.193Z,63.46
2022-10-28T19:26:39.841Z,63.52
2022-10-28T19:29:09.057Z,63.46
2022-10-28T19:31:40.381Z,63.38
2022-10-28T19:34:11.051Z,63.60
2022-10-28T19:36:39.818Z,63.48
2022-10-28T19:39:09.163Z,63.46
2022-10-28T19:41:39.022Z,63.44
2022-10-28T19:44:08.717Z,63.48
2022-10-28T19:46:38.315Z,63.61
2022-10-28T19:49:08.601Z,63.76
2022-10-28T19:51:40.860Z,63.73
2022-10-28T19:54:15.372Z,63.74
2022-10-28T19:56:45.700Z,63.62
2022-10-28T19:59:14.695Z,63.59
2022-10-28T20:01:44.243Z,63.52
2022-10-28T20:04:13.176Z,63.59
2022-10-28T20:06:41.885Z,63.66
2022-10-28T20:09:10.953Z,63.56
2022-10-28T20:11:40.895Z,63.63
2022-10-28T20:14:12.163Z,63.64
2022-10-28T20:16:44.283Z,63.61
2022-10-28T20:19:14.265Z,63.70
2022-10-28T20:21:45.878Z,63.63
2022-10-28T20:24:17.878Z,63.54
2022-10-28T20:26:47.065Z,63.72
2022-10-28T20:29:16.034Z,63.74
2022-10-28T20:31:45.552Z,63.96
2022-10-28T20:34:15.141Z,63.83
2022-10-28T20:36:46.605Z,63.94
2022-10-28T20:39:17.408Z,63.93
2022-10-28T20:41:47.409Z,64.00
2022-10-28T20:44:17.029Z,64.02
2022-10-28T20:46:48.432Z,63.97
2022-10-28T20:49:18.004Z,63.86
2022-10-28T20:51:46.787Z,63.88
2022-10-28T20:54:16.336Z,63.52
2022-10-28T20:56:45.605Z,63.49
2022-10-28T20:59:15.003Z,63.74
2022-10-28T21:01:43.882Z,63.57
2022-10-28T21:04:12.847Z,63.69
2022-10-28T21:06:42.036Z,63.90
2022-10-28T21:09:12.029Z,64.38
2022-10-28T21:11:41.087Z,64.30
2022-10-28T21:14:09.958Z,64.60
2022-10-28T21:16:38.851Z,64.87
2022-10-28T21:19:07.947Z,64.95
2022-10-28T21:21:36.938Z,65.18
2022-10-28T21:24:06.575Z,65.08
2022-10-28T21:26:35.129Z,65.19
2022-10-28T21:29:03.327Z,65.37
2022-10-28T21:31:31.487Z,65.47
2022-10-28T21:34:01.826Z,65.55
2022-10-28T21:36:32.637Z,65.48
2022-10-28T21:39:01.019Z,65.63
2022-10-28T21:41:29.610Z,65.70
2022-10-28T21:43:58.397Z,65.70
2022-10-28T21:46:28.313Z,65.44
2022-10-28T21:48:57.011Z,65.71
2022-10-28T21:51:25.585Z,66.13
2022-10-28T21:53:53.716Z,66.19
2022-10-28T21:56:21.812Z,66.16
2022-10-28T21:58:51.429Z,66.51
2022-10-28T22:01:23.362Z,66.72
2022-10-28T22:03:55.389Z,66.71
2022-10-28T22:06:27.180Z,67.00
2022-10-28T22:08:56.218Z,67.35
2022-10-28T22:11:24.898Z,67.81
2022-10-28T22:13:58.763Z,68.20
2022-10-28T22:16:29.416Z,68.38
2022-10-28T22:18:59.770Z,68.40
2022-10-28T22:21:32.049Z,68.42
2022-10-28T22:24:01.232Z,68.22
2022-10-28T22:26:30.709Z,68.05
2022-10-28T22:29:00.426Z,67.99
2022-10-28T22:31:31.621Z,67.86
2022-10-28T22:34:00.593Z,67.60
2022-10-28T22:36:30.606Z,67.37
2022-10-28T22:38:59.595Z,67.09
2022-10-28T22:41:30.712Z,66.80
2022-10-28T22:44:01.910Z,66.65
2022-10-28T22:46:34.615Z,66.78
2022-10-28T22:49:04.522Z,67.16
2022-10-28T22:51:33.655Z,67.20
2022-10-28T22:54:02.148Z,67.01
2022-10-28T22:56:30.640Z,66.65
2022-10-28T22:59:01.306Z,66.26
2022-10-28T23:01:33.869Z,66.13
2022-10-28T23:04:02.243Z,66.02
2022-10-28T23:06:30.526Z,65.69
2022-10-28T23:08:58.865Z,65.52
2022-10-28T23:11:27.487Z,65.41
2022-10-28T23:13:56.241Z,65.31
2022-10-28T23:16:24.729Z,65.24
2022-10-28T23:18:53.614Z,64.96
2022-10-28T23:21:24.449Z,64.86
2022-10-28T23:23:54.741Z,64.86
2022-10-28T23:26:23.770Z,64.76
2022-10-28T23:28:57.992Z,64.73
2022-10-28T23:31:27.085Z,64.80
2022-10-28T23:33:55.875Z,64.83
2022-10-28T23:36:24.151Z,64.71
2022-10-28T23:38:52.740Z,64.58
2022-10-28T23:41:21.245Z,64.65
2022-10-28T23:43:49.711Z,64.72
2022-10-28T23:46:18.483Z,64.64
2022-10-28T23:48:46.561Z,64.52
2022-10-28T23:51:14.795Z,64.59
2022-10-28T23:53:42.878Z,64.69
2022-10-28T23:56:10.884Z,65.10
2022-10-28T23:58:38.942Z,65.20
